Time;durP1;ratioP1;P1;durP2;ratioP2;P2;SDS_P1;SDS_P2;PMS_P1;PMS_P2;Temp;Humidity;BMP_temperature;BMP_pressure;BME280_temperature;BME280_humidity;BME280_pressure;Samples;Min_cycle;Max_cycle;Signal;HPM_P1;HPM_P2
2021/12/16 00:06:45;;;;;;;7.75;6.05;;;;;;;19.09;50.13;103338.25;4972548;28;20030;-66
2021/12/16 00:09:14;;;;;;;7.70;5.53;;;;;;;19.08;50.12;103335.69;4972618;28;20034;-66
2021/12/16 00:33:19;;;;;;;7.60;6.10;;;;;;;18.97;49.95;103333.53;5016824;28;20029;-66
2021/12/16 00:35:50;;;;;;;7.38;5.78;;;;;;;18.95;50.00;103336.22;5014946;28;20036;-66
2021/12/16 00:38:15;;;;;;;8.48;6.15;;;;;;;18.95;50.07;103343.31;5013729;28;20026;-66
2021/12/16 00:40:42;;;;;;;7.82;6.00;;;;;;;18.94;50.22;103344.22;5014622;28;20037;-64
2021/12/16 00:43:21;;;;;;;8.35;6.18;;;;;;;18.93;49.95;103342.50;5015359;28;20030;-65
2021/12/16 00:56:30;;;;;;;7.35;5.80;;;;;;;18.83;49.99;103342.03;5018325;28;19917;-66
2021/12/16 00:59:00;;;;;;;7.88;5.82;;;;;;;18.85;49.79;103345.53;5012458;28;20105;-65
2021/12/16 01:04:24;;;;;;;8.48;6.28;;;;;;;18.83;50.08;103344.69;5013008;28;20030;-66
2021/12/16 01:34:13;;;;;;;7.85;6.10;;;;;;;18.73;49.74;103352.16;5011481;28;20111;-66
2021/12/16 01:50:33;;;;;;;8.82;6.05;;;;;;;18.68;49.75;103376.13;5015338;28;20061;-66
2021/12/16 01:55:56;;;;;;;8.18;5.88;;;;;;;18.66;49.78;103374.50;5015456;28;20037;-65
2021/12/16 01:58:24;;;;;;;8.35;5.85;;;;;;;18.65;49.98;103376.25;5015865;28;20037;-65
2021/12/16 02:01:09;;;;;;;8.02;6.03;;;;;;;18.65;49.98;103378.06;5015868;28;20097;-65
2021/12/16 02:03:40;;;;;;;;;;;;;;;18.61;49.93;103377.34;5015705;28;20122;-65
2021/12/16 02:08:47;;;;;;;7.97;6.22;;;;;;;18.61;49.88;103379.09;5015540;28;20026;-66
2021/12/16 02:33:18;;;;;;;8.80;6.03;;;;;;;18.56;49.94;103387.22;5014081;28;20048;-66
2021/12/16 02:35:47;;;;;;;8.40;6.05;;;;;;;18.55;49.86;103393.44;5014980;28;20030;-66
2021/12/16 02:38:16;;;;;;;8.80;6.50;;;;;;;18.55;50.27;103397.84;5014493;28;20069;-66
2021/12/16 02:40:44;;;;;;;7.80;6.07;;;;;;;18.54;49.88;103398.78;5015017;28;20371;-65
2021/12/16 02:43:29;;;;;;;7.68;5.75;;;;;;;18.54;49.74;103399.63;5014952;28;20616;-65
2021/12/16 02:48:43;;;;;;;7.40;5.78;;;;;;;18.52;49.60;103393.56;5015186;28;20535;-66
2021/12/16 02:51:17;;;;;;;8.32;5.78;;;;;;;18.52;49.88;103406.78;5014942;28;20400;-65
2021/12/16 02:53:47;;;;;;;7.90;6.10;;;;;;;18.51;49.55;103396.28;5014053;28;20033;-65
2021/12/16 02:56:13;;;;;;;6.82;5.18;;;;;;;18.51;49.64;103409.47;5015030;28;20033;-65
2021/12/16 02:58:41;;;;;;;7.03;5.53;;;;;;;18.49;49.99;103406.91;5014317;28;20470;-65
2021/12/16 03:01:16;;;;;;;7.75;5.65;;;;;;;18.51;49.70;103406.84;5014738;28;20045;-65
2021/12/16 03:03:42;;;;;;;7.32;5.55;;;;;;;18.49;49.95;103399.84;5014516;28;20091;-65
2021/12/16 03:06:10;;;;;;;7.45;5.97;;;;;;;18.48;49.65;103403.41;5014144;28;20054;-65
2021/12/16 03:08:36;;;;;;;7.57;5.68;;;;;;;18.48;49.86;103397.25;5014688;28;20029;-65
2021/12/16 03:11:22;;;;;;;7.65;5.97;;;;;;;18.47;49.53;103399.06;5014213;28;20038;-66
2021/12/16 03:21:45;;;;;;;7.63;5.38;;;;;;;18.46;49.66;103391.19;5013742;28;20095;-65
2021/12/16 03:24:35;;;;;;;8.40;6.00;;;;;;;18.45;49.55;103398.28;5014453;28;20086;-66
2021/12/16 03:37:51;;;;;;;8.25;5.78;;;;;;;18.42;49.59;103401.03;5013905;28;20099;-65
2021/12/16 03:40:18;;;;;;;7.85;5.70;;;;;;;18.42;49.60;103402.78;5014046;28;20022;-65
2021/12/16 03:42:53;;;;;;;7.63;5.45;;;;;;;18.41;49.61;103407.22;5012777;28;20041;-65
2021/12/16 03:48:31;;;;;;;8.75;6.07;;;;;;;18.41;49.54;103401.09;5013622;28;20037;-66
2021/12/16 03:50:59;;;;;;;8.18;5.50;;;;;;;18.40;49.89;103405.50;5013448;28;20552;-66
2021/12/16 03:53:25;;;;;;;8.18;5.60;;;;;;;18.40;49.87;103407.28;5014022;28;20148;-66
2021/12/16 03:55:51;;;;;;;7.45;5.35;;;;;;;18.38;49.60;103417.91;5013003;28;20038;-66
2021/12/16 03:58:16;;;;;;;7.72;5.30;;;;;;;18.39;49.84;103427.56;5013809;28;20402;-66
2021/12/16 04:00:55;;;;;;;7.38;5.40;;;;;;;18.38;49.48;103419.72;5013476;28;20462;-66
2021/12/16 04:03:21;;;;;;;7.85;5.40;;;;;;;18.37;49.53;103424.09;5012774;28;20477;-66
2021/12/16 04:05:47;;;;;;;8.38;5.85;;;;;;;18.39;49.66;103421.41;5013125;28;20026;-65
2021/12/16 04:08:14;;;;;;;8.75;5.78;;;;;;;18.38;49.55;103430.28;5013603;28;20053;-66
2021/12/16 04:11:01;;;;;;;8.10;5.60;;;;;;;18.37;49.69;103421.47;5012269;28;20048;-66
2021/12/16 04:13:26;;;;;;;7.00;5.07;;;;;;;18.37;49.84;103418.81;5013670;28;20053;-66
2021/12/16 04:15:52;;;;;;;8.07;5.40;;;;;;;18.37;49.55;103423.25;5012343;28;20057;-66
2021/12/16 04:18:18;;;;;;;7.38;5.03;;;;;;;18.36;49.56;103422.41;5013222;28;20473;-66
2021/12/16 04:20:45;;;;;;;7.20;5.18;;;;;;;18.36;49.76;103422.41;5013309;28;20033;-65
2021/12/16 04:23:11;;;;;;;7.88;5.60;;;;;;;18.35;49.66;103418.03;5012459;28;20864;-66
2021/12/16 04:25:40;;;;;;;7.20;5.68;;;;;;;18.35;49.67;103420.69;5013349;28;20021;-66
2021/12/16 04:28:12;;;;;;;7.10;5.28;;;;;;;18.34;49.71;103421.63;5013158;28;20084;-66
2021/12/16 04:30:41;;;;;;;7.57;5.40;;;;;;;18.35;49.53;103433.88;5012381;28;20034;-66
2021/12/16 04:33:07;;;;;;;6.63;5.38;;;;;;;18.34;49.68;103426.03;5013205;28;20071;-65
2021/12/16 04:35:33;;;;;;;6.72;5.25;;;;;;;18.34;49.84;103419.00;5013235;28;20417;-66
2021/12/16 04:38:02;;;;;;;7.18;5.22;;;;;;;18.36;49.97;103417.13;5011955;28;20450;-66
2021/12/16 04:40:29;;;;;;;6.32;4.60;;;;;;;18.37;49.77;103413.53;5013183;28;20026;-66
2021/12/16 04:43:00;;;;;;;7.88;5.55;;;;;;;18.38;49.86;103419.72;5012682;28;20017;-66
2021/12/16 04:45:26;;;;;;;7.35;5.22;;;;;;;18.39;49.82;103417.00;5012358;28;20430;-66
2021/12/16 04:47:55;;;;;;;6.85;4.82;;;;;;;18.40;49.42;103407.28;5012842;28;20100;-65
2021/12/16 04:50:21;;;;;;;7.40;5.20;;;;;;;18.41;49.72;103404.59;5012975;28;20028;-66
2021/12/16 04:52:50;;;;;;;6.78;4.70;;;;;;;18.43;49.63;103420.38;5011997;28;20037;-66
2021/12/16 04:55:20;;;;;;;7.32;5.13;;;;;;;18.42;49.37;103416.88;5012782;28;20041;-67
2021/12/16 04:57:46;;;;;;;8.10;5.47;;;;;;;18.43;49.30;103415.09;5012504;28;20038;-66
2021/12/16 05:00:14;;;;;;;7.10;5.00;;;;;;;18.42;49.38;103414.25;5012201;28;20101;-66
2021/12/16 05:02:59;;;;;;;8.43;5.47;;;;;;;18.43;49.40;103408.00;5012631;28;20022;-66
2021/12/16 05:05:25;;;;;;;6.95;4.88;;;;;;;18.43;49.18;103413.28;5012049;28;20100;-66
2021/12/16 05:07:50;;;;;;;7.35;5.18;;;;;;;18.43;49.40;103413.28;5012543;28;20462;-66
2021/12/16 05:10:18;;;;;;;7.18;5.20;;;;;;;18.44;49.25;103415.03;5012731;28;20068;-66
2021/12/16 05:12:50;;;;;;;6.70;4.95;;;;;;;18.45;49.37;103413.22;5011882;28;20048;-66
2021/12/16 05:15:19;;;;;;;6.55;4.78;;;;;;;18.44;49.07;103422.09;5012976;28;20022;-66
2021/12/16 05:17:50;;;;;;;7.20;5.20;;;;;;;18.45;49.44;103418.50;5012765;28;20022;-66
2021/12/16 05:20:21;;;;;;;8.18;4.90;;;;;;;18.44;48.87;103422.94;5010923;28;20053;-65
2021/12/16 05:27:56;;;;;;;8.10;5.28;;;;;;;18.43;49.15;103426.50;5014607;28;20065;-66
2021/12/16 05:30:21;;;;;;;6.85;4.90;;;;;;;18.43;49.17;103417.72;5015167;28;20112;-66
2021/12/16 05:32:47;;;;;;;8.73;4.72;;;;;;;18.43;49.40;103428.28;5014664;28;20042;-65
2021/12/16 05:35:16;;;;;;;6.90;5.07;;;;;;;18.44;49.28;103430.03;5014432;28;20473;-65
2021/12/16 05:37:43;;;;;;;6.30;4.63;;;;;;;18.43;49.25;103436.22;5014932;28;20018;-66
2021/12/16 05:40:09;;;;;;;6.32;4.90;;;;;;;18.45;49.32;103434.34;5015165;28;20029;-66
2021/12/16 05:42:44;;;;;;;7.10;4.70;;;;;;;18.45;49.30;103437.00;5014372;28;20030;-66
2021/12/16 05:45:11;;;;;;;8.38;4.75;;;;;;;18.46;49.13;103438.72;5014796;28;20037;-66
2021/12/16 05:47:39;;;;;;;8.25;5.10;;;;;;;18.47;49.06;103445.72;5014054;28;20025;-66
2021/12/16 05:50:07;;;;;;;6.93;4.90;;;;;;;18.47;48.74;103443.09;5015048;28;20030;-66
2021/12/16 05:52:33;;;;;;;6.68;4.78;;;;;;;18.46;49.11;103450.13;5014989;28;20056;-66
2021/12/16 05:54:58;;;;;;;7.07;4.47;;;;;;;18.46;48.90;103449.28;5013844;28;20026;-66
2021/12/16 05:57:24;;;;;;;6.70;4.80;;;;;;;18.48;48.81;103452.72;5014799;28;20088;-66
2021/12/16 05:59:49;;;;;;;7.10;5.05;;;;;;;18.47;48.47;103454.50;5014331;28;20045;-66
2021/12/16 06:02:14;;;;;;;6.53;4.57;;;;;;;18.48;48.59;103465.91;5013736;28;20061;-65
2021/12/16 06:04:40;;;;;;;6.37;4.37;;;;;;;18.47;48.59;103469.50;5014336;28;20034;-66
2021/12/16 06:07:05;;;;;;;6.82;4.70;;;;;;;18.48;48.47;103471.19;5014766;28;20298;-65
2021/12/16 06:09:30;;;;;;;7.75;5.00;;;;;;;18.47;48.79;103469.50;5013895;28;20025;-66
2021/12/16 06:11:56;;;;;;;6.07;4.20;;;;;;;18.47;49.17;103473.00;5014165;28;20022;-65
2021/12/16 06:14:51;;;;;;;6.18;4.05;;;;;;;18.48;49.43;103480.00;5014714;28;20785;-66
2021/12/16 06:26:27;;;;;;;5.20;3.47;;;;;;;18.53;49.89;103479.78;4973128;28;20043;-66
2021/12/16 06:28:37;;;;;;;5.55;3.70;;;;;;;18.55;50.20;103477.97;5008199;28;20516;-66
2021/12/16 06:31:03;;;;;;;5.72;3.38;;;;;;;18.55;50.22;103471.78;5014336;28;20053;-65
2021/12/16 06:33:29;;;;;;;5.57;3.47;;;;;;;18.58;50.31;103488.41;5014771;28;20123;-65
2021/12/16 06:35:55;;;;;;;7.28;3.55;;;;;;;18.59;50.15;103495.38;5014844;28;20370;-65
2021/12/16 06:38:22;;;;;;;6.32;3.33;;;;;;;18.61;50.04;103485.63;5014707;28;20025;-65
2021/12/16 06:40:48;;;;;;;4.82;3.35;;;;;;;18.63;50.21;103482.94;5014976;28;20022;-65
2021/12/16 06:43:15;;;;;;;5.18;3.45;;;;;;;18.63;50.24;103483.78;5014927;28;20057;-65
2021/12/16 06:45:44;;;;;;;6.18;3.67;;;;;;;18.65;50.06;103489.00;5014160;28;20029;-65
2021/12/16 06:48:15;;;;;;;4.85;3.17;;;;;;;18.67;50.04;103485.38;5014766;28;20124;-65
2021/12/16 06:50:55;;;;;;;5.05;3.22;;;;;;;18.69;49.92;103490.56;5014158;28;20088;-65
2021/12/16 06:53:30;;;;;;;5.85;3.25;;;;;;;18.72;50.07;103494.88;5015066;28;20097;-63
2021/12/16 07:01:38;;;;;;;5.90;3.13;;;;;;;18.74;49.65;103499.19;4992025;28;20145;-63
2021/12/16 07:04:11;;;;;;;6.28;3.20;;;;;;;18.75;49.51;103503.53;5014444;28;20433;-65
2021/12/16 07:06:38;;;;;;;5.78;3.22;;;;;;;18.77;49.45;103498.16;5014513;28;20030;-64
2021/12/16 07:09:13;;;;;;;4.88;3.15;;;;;;;18.79;49.37;103497.19;5014224;28;20359;-64
2021/12/16 07:11:44;;;;;;;4.60;2.88;;;;;;;18.80;49.36;103501.56;5013993;28;20113;-65
2021/12/16 07:14:14;;;;;;;6.25;3.15;;;;;;;18.83;49.10;103512.00;5014744;28;20109;-65
2021/12/16 07:16:42;;;;;;;4.82;2.85;;;;;;;18.85;49.49;103518.09;5014364;28;20030;-64
2021/12/16 07:19:09;;;;;;;4.93;3.20;;;;;;;18.86;49.30;103513.66;5013540;28;20052;-64
2021/12/16 07:21:37;;;;;;;5.53;3.22;;;;;;;18.88;49.59;103526.81;5014697;28;20030;-64
2021/12/16 07:24:05;;;;;;;5.38;2.95;;;;;;;18.87;49.66;103528.63;5014034;28;20527;-64
2021/12/16 07:26:34;;;;;;;5.80;3.20;;;;;;;18.89;49.38;103531.19;5013806;28;20105;-66
2021/12/16 07:29:00;;;;;;;5.53;3.50;;;;;;;18.90;47.90;103533.78;5014172;28;20497;-63
2021/12/16 07:31:28;;;;;;;7.05;3.90;;;;;;;18.91;48.89;103537.25;5014394;28;20034;-65
2021/12/16 07:33:53;;;;;;;5.10;3.17;;;;;;;18.92;49.26;103544.28;5013178;28;20032;-64
2021/12/16 07:36:19;;;;;;;5.68;3.20;;;;;;;18.92;49.35;103555.69;5014425;28;20097;-65
2021/12/16 07:38:47;;;;;;;5.07;3.20;;;;;;;18.94;49.59;103553.84;5014027;28;20073;-65
2021/12/16 07:41:16;;;;;;;6.57;3.50;;;;;;;18.95;49.25;103555.56;5013633;28;20371;-63
2021/12/16 07:43:55;;;;;;;5.28;3.40;;;;;;;18.95;49.33;103557.38;5013402;28;20030;-69
2021/12/16 07:46:21;;;;;;;5.53;3.30;;;;;;;18.97;49.45;103558.16;5013860;28;20046;-62
2021/12/16 07:48:46;;;;;;;6.25;3.75;;;;;;;18.96;48.39;103562.59;5013215;28;20040;-65
2021/12/16 07:51:12;;;;;;;6.80;3.90;;;;;;;18.98;49.11;103581.03;5013998;28;20025;-63
2021/12/16 07:53:38;;;;;;;6.97;3.13;;;;;;;19.00;49.38;103584.44;5013838;28;20362;-64
2021/12/16 07:56:04;;;;;;;5.82;3.30;;;;;;;19.01;49.58;103594.09;5012818;28;20469;-67
2021/12/16 07:58:30;;;;;;;7.18;3.10;;;;;;;19.01;49.56;103592.31;5013987;28;20033;-64
2021/12/16 08:00:56;;;;;;;4.70;3.03;;;;;;;19.01;49.43;103594.97;5012972;28;20404;-64
2021/12/16 08:03:26;;;;;;;6.40;3.75;;;;;;;19.04;49.27;103601.88;5013887;28;20485;-64
2021/12/16 08:05:58;;;;;;;6.72;3.30;;;;;;;19.05;49.34;103608.03;5013559;28;20030;-72
2021/12/16 08:08:24;;;;;;;5.93;3.20;;;;;;;19.05;49.40;103611.53;5013536;28;20389;-64
2021/12/16 08:10:52;;;;;;;6.28;3.60;;;;;;;19.05;49.32;103614.19;5013289;28;20030;-64
2021/12/16 08:13:18;;;;;;;6.45;3.53;;;;;;;19.05;49.30;103614.19;5013516;28;20100;-64
2021/12/16 08:15:44;;;;;;;6.63;3.38;;;;;;;19.05;49.59;103616.81;5012759;28;20041;-63
2021/12/16 08:18:09;;;;;;;7.63;3.90;;;;;;;19.05;49.12;103623.91;5013370;28;20018;-63
2021/12/16 08:20:35;;;;;;;7.78;3.30;;;;;;;19.04;49.20;103625.66;5003251;28;20038;-63
2021/12/16 08:23:00;;;;;;;6.53;3.15;;;;;;;19.04;49.41;103625.66;5032009;28;20021;-62
2021/12/16 08:25:30;;;;;;;7.10;3.30;;;;;;;19.05;49.42;103627.41;5032933;28;20097;-63
2021/12/16 08:27:57;;;;;;;5.53;2.95;;;;;;;19.06;49.46;103637.06;5032833;28;20021;-63
2021/12/16 08:30:26;;;;;;;5.40;3.20;;;;;;;19.05;49.71;103635.31;5032144;28;20045;-63
2021/12/16 08:32:54;;;;;;;6.88;3.70;;;;;;;19.06;49.47;103637.06;5032832;28;20029;-62
2021/12/16 08:35:20;;;;;;;8.65;3.60;;;;;;;19.07;49.45;103651.97;5033081;28;20033;-62
2021/12/16 08:37:46;;;;;;;8.00;3.38;;;;;;;19.06;49.33;103645.00;5031829;28;20029;-64
2021/12/16 08:40:16;;;;;;;7.32;3.58;;;;;;;19.07;49.45;103646.69;5032814;28;20022;-62
2021/12/16 08:42:43;;;;;;;7.78;4.00;;;;;;;19.06;49.13;103641.47;5032531;28;20029;-63
2021/12/16 08:45:13;;;;;;;6.30;3.60;;;;;;;19.07;49.12;103651.13;5031747;28;20151;-63
2021/12/16 08:47:39;;;;;;;8.10;4.07;;;;;;;19.06;49.29;103650.28;5032790;28;20362;-63
2021/12/16 08:50:07;;;;;;;8.30;3.97;;;;;;;19.06;49.12;103650.28;5032656;28;20028;-64
2021/12/16 08:52:32;;;;;;;7.50;4.15;;;;;;;19.06;49.08;103645.00;5032857;28;20025;-64
2021/12/16 08:55:00;;;;;;;9.70;4.00;;;;;;;19.04;49.16;103657.38;5032372;28;20018;-65
2021/12/16 08:57:28;;;;;;;6.55;3.83;;;;;;;19.04;49.44;103657.38;5031852;28;20758;-66
2021/12/16 08:59:53;;;;;;;7.78;4.07;;;;;;;19.03;49.52;103660.97;5032204;28;20479;-63
2021/12/16 09:02:20;;;;;;;10.52;4.38;;;;;;;19.02;49.20;103672.44;5032498;28;20116;-63
2021/12/16 09:04:46;;;;;;;8.68;4.28;;;;;;;19.02;49.36;103686.53;5031466;28;20069;-65
2021/12/16 09:07:13;;;;;;;6.70;3.97;;;;;;;19.02;49.36;103677.75;5032373;28;20561;-61
2021/12/16 09:09:39;;;;;;;7.88;4.05;;;;;;;19.02;49.26;103677.75;5032486;28;20021;-64
2021/12/16 09:12:15;;;;;;;9.38;4.78;;;;;;;19.01;48.15;103673.41;5031833;28;20022;-65
2021/12/16 09:14:42;;;;;;;9.18;4.53;;;;;;;18.99;48.86;103681.38;5032349;28;20048;-63
2021/12/16 09:17:12;;;;;;;10.25;5.50;;;;;;;18.97;48.40;103666.50;5032566;28;20032;-65
2021/12/16 09:19:41;;;;;;;8.75;4.30;;;;;;;18.96;48.46;103675.34;5031562;28;20543;-65
2021/12/16 09:22:09;;;;;;;7.80;4.07;;;;;;;18.95;48.67;103676.28;5032365;28;20029;-65
2021/12/16 09:24:35;;;;;;;9.00;4.28;;;;;;;18.93;48.75;103684.28;5032421;28;20036;-65
2021/12/16 09:27:00;;;;;;;7.55;4.32;;;;;;;18.95;48.71;103692.13;5031464;28;20022;-64
2021/12/16 09:29:29;;;;;;;8.75;4.30;;;;;;;18.93;48.47;103679.00;5032304;28;20444;-66
2021/12/16 09:31:54;;;;;;;8.70;4.22;;;;;;;18.93;48.75;103679.00;5031873;28;20044;-65
2021/12/16 09:34:22;;;;;;;7.93;3.72;;;;;;;18.93;48.83;103680.75;5031631;28;20041;-65
2021/12/16 09:36:47;;;;;;;7.40;4.28;;;;;;;18.93;48.43;103688.69;5031722;28;20067;-65
2021/12/16 09:39:16;;;;;;;7.60;3.88;;;;;;;18.92;48.82;103679.91;5032437;28;20025;-65
2021/12/16 09:41:47;;;;;;;8.10;4.95;;;;;;;18.93;48.57;103679.00;5031325;28;20457;-65
2021/12/16 09:44:14;;;;;;;9.75;4.78;;;;;;;18.91;48.56;103691.38;5032188;28;20061;-65
2021/12/16 09:46:43;;;;;;;5.40;3.75;;;;;;;18.93;48.47;103696.59;5031377;28;20174;-65
2021/12/16 09:49:08;;;;;;;8.63;4.28;;;;;;;18.92;48.33;103692.25;5032022;28;20072;-65
2021/12/16 09:51:40;;;;;;;8.98;4.00;;;;;;;18.90;48.47;103694.97;5031982;28;20057;-65
2021/12/16 09:54:09;;;;;;;7.80;4.25;;;;;;;18.91;48.24;103698.47;5031283;28;20056;-65
2021/12/16 09:56:35;;;;;;;8.48;4.30;;;;;;;18.91;48.60;103686.09;5032000;28;20040;-66
2021/12/16 09:59:07;;;;;;;6.63;4.30;;;;;;;18.91;48.63;103682.59;5031988;28;20079;-66
2021/12/16 10:01:40;;;;;;;8.07;4.15;;;;;;;18.94;48.61;103693.06;5033229;28;20457;-67
2021/12/16 10:04:09;;;;;;;10.23;4.10;;;;;;;19.04;48.07;103689.09;5037911;28;20476;-69
2021/12/16 10:06:37;;;;;;;7.20;4.25;;;;;;;19.17;47.91;103685.06;5032819;28;20481;-64
2021/12/16 10:09:05;;;;;;;7.38;4.18;;;;;;;19.30;47.64;103693.34;5034248;28;20156;-62
2021/12/16 10:11:36;;;;;;;7.05;4.60;;;;;;;19.40;47.29;103689.38;5035947;28;20029;-63
2021/12/16 10:14:16;;;;;;;6.60;3.95;;;;;;;19.49;47.08;103687.28;5035332;28;20040;-63
2021/12/16 10:19:31;;;;;;;6.40;4.30;;;;;;;19.62;46.79;103692.91;5035556;28;20049;-64
2021/12/16 10:22:17;;;;;;;6.63;3.67;;;;;;;19.63;47.02;103691.97;5034738;28;20018;-62
2021/12/16 10:24:43;;;;;;;5.97;3.95;;;;;;;19.65;46.97;103698.06;5035047;28;20037;-64
2021/12/16 10:27:12;;;;;;;6.30;3.65;;;;;;;19.71;46.76;103689.84;5037039;28;20109;-63
2021/12/16 10:29:55;;;;;;;7.28;4.18;;;;;;;19.77;46.71;103692.25;5036022;28;20481;-61
2021/12/16 10:32:35;;;;;;;6.68;4.13;;;;;;;19.76;46.68;103687.91;5035303;28;20049;-65
2021/12/16 10:35:06;;;;;;;7.97;3.92;;;;;;;19.69;46.96;103686.41;5034870;28;20091;-64
2021/12/16 10:37:36;;;;;;;10.27;4.32;;;;;;;19.62;47.12;103695.56;5034206;28;20032;-64
2021/12/16 10:40:37;;;;;;;9.20;6.00;;;;;;;19.47;47.27;103692.63;5034960;28;20029;-63
2021/12/16 10:43:09;;;;;;;9.90;4.97;;;;;;;19.39;47.50;103692.06;5033967;28;20037;-64
2021/12/16 10:45:49;;;;;;;7.40;4.93;;;;;;;19.33;48.04;103682.63;5034577;28;20049;-64
2021/12/16 10:48:15;;;;;;;7.07;4.45;;;;;;;19.30;48.43;103684.56;5035011;28;20048;-64
2021/12/16 10:51:03;;;;;;;7.90;4.40;;;;;;;19.30;48.49;103689.84;5034713;28;20022;-65
2021/12/16 10:53:52;;;;;;;6.63;4.40;;;;;;;19.43;48.19;103687.53;5035325;28;20025;-64
2021/12/16 10:56:22;;;;;;;8.93;5.00;;;;;;;19.48;47.96;103689.06;5034792;28;20104;-64
2021/12/16 10:59:28;;;;;;;6.88;4.32;;;;;;;19.45;48.08;103691.81;5033821;28;20453;-64
2021/12/16 11:01:57;;;;;;;10.77;4.15;;;;;;;19.39;48.34;103685.03;5052282;28;20037;-64
2021/12/16 11:04:39;;;;;;;7.65;4.00;;;;;;;19.34;48.69;103691.41;5051672;28;20041;-65
2021/12/16 11:07:13;;;;;;;10.18;6.05;;;;;;;19.26;48.49;103699.66;5041736;28;20488;-65
2021/12/16 11:09:42;;;;;;;8.68;4.47;;;;;;;19.21;49.06;103688.44;5034578;28;20160;-66
2021/12/16 11:12:30;;;;;;;11.30;4.30;;;;;;;19.19;49.30;103687.63;5033729;28;20044;-66
2021/12/16 11:15:03;;;;;;;5.93;3.70;;;;;;;19.19;49.46;103696.41;5033563;28;20548;-66
2021/12/16 11:17:38;;;;;;;9.27;3.83;;;;;;;19.19;49.34;103693.78;5034322;28;20366;-64
2021/12/16 11:20:15;;;;;;;9.50;4.28;;;;;;;19.19;49.72;103696.41;5031990;28;20130;-64
2021/12/16 11:22:41;;;;;;;9.07;4.78;;;;;;;19.19;49.69;103695.56;5034095;28;20033;-64
2021/12/16 11:25:14;;;;;;;10.65;5.78;;;;;;;19.20;49.45;103702.56;5033468;28;20041;-63
2021/12/16 11:27:39;;;;;;;11.57;6.82;;;;;;;19.18;49.79;103696.47;5034254;28;20029;-64
2021/12/16 11:30:30;;;;;;;12.02;7.93;;;;;;;19.18;49.91;103705.28;5033931;28;20037;-64
2021/12/16 11:33:09;;;;;;;12.23;7.88;;;;;;;19.18;49.99;103700.00;5033073;28;20041;-65
2021/12/16 11:35:45;;;;;;;10.35;8.45;;;;;;;19.17;50.06;103692.97;5034172;28;20041;-64
2021/12/16 11:38:16;;;;;;;12.77;9.23;;;;;;;19.17;50.15;103697.41;5034589;28;20017;-64
2021/12/16 11:40:58;;;;;;;12.27;10.05;;;;;;;19.16;50.25;103693.03;5033414;28;20108;-63
2021/12/16 11:43:54;;;;;;;12.68;10.57;;;;;;;19.14;50.62;103701.03;5034218;28;20432;-62
2021/12/16 11:46:42;;;;;;;13.95;10.45;;;;;;;19.15;50.50;103692.19;5033011;28;20063;-63
2021/12/16 11:49:16;;;;;;;16.70;11.60;;;;;;;19.15;50.65;103689.56;5033990;28;20107;-65
2021/12/16 11:51:45;;;;;;;11.90;10.00;;;;;;;19.16;50.17;103693.91;5034589;28;20041;-64
2021/12/16 11:54:43;;;;;;;11.77;10.18;;;;;;;19.20;50.52;103694.63;5035237;28;20029;-66
2021/12/16 11:57:33;;;;;;;13.95;8.90;;;;;;;19.37;50.47;103686.00;5035250;28;20046;-61
2021/12/16 12:00:22;;;;;;;13.15;9.35;;;;;;;19.55;49.77;103692.28;5033897;28;20064;-63
2021/12/16 12:02:50;;;;;;;11.13;8.57;;;;;;;19.68;49.67;103680.28;5034366;28;20041;-67
2021/12/16 12:05:32;;;;;;;11.48;8.35;;;;;;;19.77;49.46;103676.38;5035511;28;20087;-69
2021/12/16 12:08:11;;;;;;;12.57;8.63;;;;;;;19.84;49.49;103687.59;5034062;28;20049;-66
2021/12/16 12:10:38;;;;;;;14.73;8.18;;;;;;;19.91;49.11;103684.56;5034871;28;20041;-63
2021/12/16 12:13:07;;;;;;;9.88;7.32;;;;;;;19.85;49.02;103682.22;5033839;28;20052;-67
2021/12/16 12:15:50;;;;;;;13.05;7.80;;;;;;;19.76;49.32;103690.56;5033230;28;20028;-67
2021/12/16 12:18:38;;;;;;;11.98;7.90;;;;;;;19.68;49.78;103677.63;5033607;28;20032;-66
2021/12/16 12:21:23;;;;;;;10.70;6.85;;;;;;;19.61;49.76;103673.50;5033224;28;20038;-66
2021/12/16 12:23:54;;;;;;;13.63;8.20;;;;;;;19.57;49.88;103695.75;5033019;28;20386;-68
2021/12/16 12:26:21;;;;;;;10.52;6.93;;;;;;;19.52;50.08;103693.31;5033576;28;20029;-66
2021/12/16 12:28:49;;;;;;;12.20;6.68;;;;;;;19.46;50.52;103682.13;5032351;28;20032;-66
2021/12/16 12:31:18;;;;;;;11.30;6.78;;;;;;;19.47;50.59;103683.81;5032784;28;20489;-68
2021/12/16 12:33:53;;;;;;;14.18;6.85;;;;;;;19.44;50.35;103682.19;5032852;28;20041;-68
2021/12/16 12:36:22;;;;;;;10.13;6.07;;;;;;;19.42;50.53;103683.16;5032735;28;20437;-67
2021/12/16 12:38:47;;;;;;;9.95;6.35;;;;;;;19.40;50.70;103680.59;5033239;28;20475;-67
2021/12/16 12:41:13;;;;;;;12.75;6.57;;;;;;;19.38;50.49;103679.81;5032951;28;20025;-67
2021/12/16 12:43:39;;;;;;;9.85;5.60;;;;;;;19.36;50.67;103677.22;5032848;28;20539;-72
2021/12/16 12:46:06;;;;;;;13.82;5.95;;;;;;;19.39;50.41;103678.84;5032898;28;20033;-65
2021/12/16 12:48:35;;;;;;;8.50;5.40;;;;;;;19.37;50.60;103680.72;5032774;28;20033;-66
2021/12/16 12:51:04;;;;;;;10.65;5.68;;;;;;;19.35;50.71;103682.56;5031913;28;20061;-64
2021/12/16 12:53:47;;;;;;;9.07;5.25;;;;;;;19.32;50.53;103674.75;5032798;28;20037;-63
2021/12/16 12:56:15;;;;;;;10.10;5.37;;;;;;;19.30;50.08;103679.25;5032784;28;20079;-65
2021/12/16 12:59:11;;;;;;;8.15;5.47;;;;;;;19.28;50.27;103675.81;5032182;28;20392;-64
2021/12/16 13:01:44;;;;;;;8.40;5.28;;;;;;;19.27;50.35;103668.81;5031746;28;20094;-65
2021/12/16 13:04:41;;;;;;;7.05;4.95;;;;;;;19.27;50.45;103671.47;5031764;28;20378;-65
2021/12/16 13:07:10;;;;;;;9.52;5.30;;;;;;;19.27;50.13;103663.53;5030769;28;20048;-65
2021/12/16 13:10:10;;;;;;;9.45;4.80;;;;;;;19.25;50.11;103670.66;5032806;28;20049;-65
2021/12/16 13:12:53;;;;;;;7.50;4.53;;;;;;;19.26;50.16;103664.44;5031761;28;20029;-63
2021/12/16 13:26:47;;;;;;;7.53;4.07;;;;;;;19.22;50.15;103674.28;5036508;28;19913;-65
2021/12/16 13:29:31;;;;;;;7.88;4.78;;;;;;;19.21;49.72;103669.91;5032613;28;20030;-64
2021/12/16 13:32:13;;;;;;;7.95;4.70;;;;;;;19.19;49.81;103661.19;5031469;28;20128;-65
2021/12/16 13:35:52;;;;;;;7.88;3.90;;;;;;;19.18;50.02;103664.75;5032611;28;20045;-63
2021/12/16 13:37:53;;;;;;;9.13;4.07;;;;;;;19.16;50.06;103664.81;5024639;28;20061;-63
2021/12/16 13:40:25;;;;;;;7.43;4.13;;;;;;;19.17;49.88;103678.91;5031497;28;20025;-63
2021/12/16 13:43:00;;;;;;;8.15;3.88;;;;;;;19.17;49.95;103671.84;5033272;28;20048;-65
2021/12/16 13:45:34;;;;;;;8.38;3.90;;;;;;;19.15;49.14;103675.44;5036194;28;20033;-66
2021/12/16 14:05:15;;;;;;;6.28;3.25;;;;;;;19.59;49.20;103670.09;5035493;28;20138;-63
2021/12/16 14:07:57;;;;;;;8.10;3.22;;;;;;;19.70;48.79;103677.56;5034952;28;20033;-64
2021/12/16 14:10:35;;;;;;;4.97;2.97;;;;;;;19.78;48.78;103682.56;5036218;28;20048;-65
2021/12/16 14:16:19;;;;;;;7.50;3.10;;;;;;;19.86;48.30;103685.72;5036533;28;20044;-66
2021/12/16 14:24:44;;;;;;;5.32;2.92;;;;;;;19.98;48.24;103684.31;5036565;28;20051;-64
2021/12/16 14:27:22;;;;;;;5.80;3.10;;;;;;;19.98;48.29;103686.94;5036285;28;20572;-66
2021/12/16 14:38:10;;;;;;;5.03;2.85;;;;;;;19.63;48.80;103703.44;5035157;28;20159;-68
2021/12/16 14:40:51;;;;;;;6.80;2.90;;;;;;;19.58;49.05;103700.97;5035335;28;20124;-68
2021/12/16 14:43:36;;;;;;;6.43;3.17;;;;;;;19.53;48.92;103710.03;5034461;28;20030;-66
2021/12/16 14:46:04;;;;;;;4.65;2.65;;;;;;;19.47;49.00;103711.16;5034661;28;20476;-64
2021/12/16 14:48:35;;;;;;;5.25;2.60;;;;;;;19.43;49.16;103711.34;5035059;28;20396;-67
2021/12/16 14:51:07;;;;;;;5.20;2.35;;;;;;;19.42;49.36;103713.09;5034063;28;20091;-67
2021/12/16 14:53:38;;;;;;;5.25;2.90;;;;;;;19.39;49.65;103715.88;5034428;28;20029;-66
2021/12/16 14:56:17;;;;;;;4.70;2.70;;;;;;;19.37;49.65;103715.09;5033992;28;20100;-66
2021/12/16 14:58:47;;;;;;;5.65;2.60;;;;;;;19.36;49.60;103706.31;5034556;28;20131;-66
2021/12/16 15:01:21;;;;;;;5.65;2.50;;;;;;;19.35;49.52;103706.38;5034742;28;20033;-67
2021/12/16 15:03:49;;;;;;;7.00;2.70;;;;;;;19.32;49.75;103706.50;5033599;28;20022;-69
2021/12/16 15:06:32;;;;;;;4.88;2.50;;;;;;;19.31;49.92;103718.88;5034705;28;20026;-67